createdAt,value
2022-08-23T00:02:26.320Z,2.13
2022-08-23T00:05:08.012Z,1.80
2022-08-23T00:07:40.494Z,2.37
2022-08-23T00:10:09.853Z,2.00
2022-08-23T00:12:38.828Z,2.10
2022-08-23T00:15:08.870Z,2.17
2022-08-23T00:17:39.108Z,2.00
2022-08-23T00:20:08.757Z,2.20
2022-08-23T00:22:38.007Z,1.73
2022-08-23T00:25:08.960Z,2.13
2022-08-23T00:27:37.576Z,1.67
2022-08-23T00:30:08.112Z,2.10
2022-08-23T00:32:38.430Z,2.10
2022-08-23T00:35:07.832Z,2.33
2022-08-23T00:37:37.581Z,2.17
2022-08-23T00:40:09.204Z,2.70
2022-08-23T00:43:00.055Z,2.60
2022-08-23T00:45:48.968Z,2.50
2022-08-23T00:48:17.930Z,2.27
2022-08-23T00:50:50.325Z,2.20
2022-08-23T00:53:21.273Z,2.20
2022-08-23T00:55:52.558Z,2.20
2022-08-23T00:58:22.032Z,2.40
2022-08-23T01:00:51.591Z,2.17
2022-08-23T01:03:20.831Z,2.10
2022-08-23T01:05:53.197Z,2.10
2022-08-23T01:08:23.566Z,2.10
2022-08-23T01:10:55.219Z,2.13
2022-08-23T01:13:26.798Z,2.50
2022-08-23T01:15:57.817Z,2.40
2022-08-23T01:18:30.223Z,2.03
2022-08-23T01:21:02.963Z,2.47
2022-08-23T01:23:35.197Z,2.50
2022-08-23T01:26:04.131Z,2.40
2022-08-23T01:28:33.565Z,2.40
2022-08-23T01:31:02.432Z,2.20
2022-08-23T01:33:35.368Z,2.43
2022-08-23T01:36:04.677Z,2.30
2022-08-23T01:38:39.897Z,2.57
2022-08-23T01:41:09.284Z,2.20
2022-08-23T01:43:37.964Z,2.13
2022-08-23T01:46:10.668Z,2.50
2022-08-23T01:48:39.315Z,2.80
2022-08-23T01:51:08.161Z,2.43
2022-08-23T01:53:36.890Z,2.50
2022-08-23T01:56:07.597Z,2.50
2022-08-23T01:58:37.150Z,2.40
2022-08-23T02:01:06.287Z,2.20
2022-08-23T02:03:34.932Z,2.73
2022-08-23T02:06:03.549Z,2.37
2022-08-23T02:08:49.713Z,2.70
2022-08-23T02:11:23.796Z,2.70
2022-08-23T02:13:53.064Z,2.80
2022-08-23T02:16:25.218Z,2.47
2022-08-23T02:18:54.184Z,2.70
2022-08-23T02:21:22.955Z,2.50
2022-08-23T02:23:52.169Z,2.70
2022-08-23T02:26:31.404Z,2.67
2022-08-23T02:29:00.093Z,2.63
2022-08-23T02:31:28.709Z,2.37
2022-08-23T02:33:57.344Z,2.40
2022-08-23T02:36:26.134Z,2.30
2022-08-23T02:38:55.060Z,2.37
2022-08-23T02:41:25.090Z,2.60
2022-08-23T02:43:54.141Z,2.73
2022-08-23T02:46:22.996Z,2.60
2022-08-23T02:48:51.798Z,2.30
2022-08-23T02:51:20.622Z,2.40
2022-08-23T02:53:49.215Z,2.83
2022-08-23T02:56:21.444Z,2.80
2022-08-23T02:58:54.041Z,2.33
2022-08-23T03:01:25.122Z,2.63
2022-08-23T03:03:54.309Z,2.60
2022-08-23T03:06:25.475Z,2.33
2022-08-23T03:08:55.129Z,2.37
2022-08-23T03:11:24.892Z,2.00
2022-08-23T03:13:56.210Z,2.30
2022-08-23T03:16:25.458Z,2.00
2022-08-23T03:18:54.112Z,2.37
2022-08-23T03:21:23.033Z,2.30
2022-08-23T03:23:51.653Z,2.23
2022-08-23T03:26:20.904Z,2.40
2022-08-23T03:28:49.704Z,2.10
2022-08-23T03:31:19.757Z,2.10
2022-08-23T03:33:48.429Z,2.20
2022-08-23T03:36:17.030Z,2.07
2022-08-23T03:38:45.631Z,2.20
2022-08-23T03:41:14.649Z,2.07
2022-08-23T03:43:43.245Z,2.17
2022-08-23T03:46:22.740Z,2.30
2022-08-23T03:48:53.713Z,2.30
2022-08-23T03:51:23.377Z,2.43
2022-08-23T03:53:52.229Z,2.33
2022-08-23T03:56:24.508Z,2.50
2022-08-23T03:58:53.486Z,2.40
2022-08-23T04:01:26.500Z,2.43
2022-08-23T04:03:59.783Z,2.27
2022-08-23T04:06:28.557Z,2.30
2022-08-23T04:08:57.278Z,2.13
2022-08-23T04:11:26.382Z,2.30
2022-08-23T04:13:54.991Z,1.77
2022-08-23T04:16:23.584Z,2.27
2022-08-23T04:18:52.393Z,2.20
2022-08-23T04:21:23.783Z,2.00
2022-08-23T04:23:52.700Z,2.60
2022-08-23T04:26:21.927Z,2.13
2022-08-23T04:28:50.471Z,2.50
2022-08-23T04:31:19.808Z,2.17
2022-08-23T04:33:52.539Z,2.10
2022-08-23T04:36:23.475Z,2.60
2022-08-23T04:38:52.272Z,2.33
2022-08-23T04:41:39.144Z,1.93
2022-08-23T04:44:07.987Z,2.10
2022-08-23T04:46:36.624Z,2.30
2022-08-23T04:49:05.465Z,2.30
2022-08-23T04:51:35.377Z,2.20
2022-08-23T04:54:04.015Z,2.30
2022-08-23T04:56:32.691Z,2.30
2022-08-23T04:59:01.485Z,2.30
2022-08-23T05:01:30.220Z,2.30
2022-08-23T05:04:00.157Z,2.20
2022-08-23T05:06:29.184Z,2.00
2022-08-23T05:08:59.756Z,2.30
2022-08-23T05:11:29.117Z,2.00
2022-08-23T05:13:57.811Z,2.13
2022-08-23T05:16:26.417Z,2.10
2022-08-23T05:18:55.139Z,2.33
2022-08-23T05:21:24.565Z,2.17
2022-08-23T05:23:54.713Z,2.50
2022-08-23T05:26:25.202Z,2.30
2022-08-23T05:28:53.865Z,2.40
2022-08-23T05:31:23.320Z,2.30
2022-08-23T05:33:52.208Z,1.90
2022-08-23T05:36:22.113Z,2.27
2022-08-23T05:38:52.217Z,2.07
2022-08-23T05:41:21.227Z,1.90
2022-08-23T05:43:51.387Z,1.90
2022-08-23T05:46:21.114Z,2.10
2022-08-23T05:48:51.268Z,2.33
2022-08-23T05:51:22.336Z,2.27
2022-08-23T05:53:52.345Z,1.80
2022-08-23T05:56:22.566Z,2.53
2022-08-23T05:58:57.778Z,1.93
2022-08-23T06:01:28.645Z,2.10
2022-08-23T06:03:57.380Z,2.17
2022-08-23T06:06:37.445Z,2.10
2022-08-23T06:09:07.197Z,2.10
2022-08-23T06:11:36.438Z,2.20
2022-08-23T06:14:07.268Z,2.37
2022-08-23T06:16:37.708Z,2.27
2022-08-23T06:19:06.769Z,1.80
2022-08-23T06:21:36.176Z,1.67
2022-08-23T06:24:05.318Z,2.40
2022-08-23T06:26:34.993Z,2.10
2022-08-23T06:29:04.579Z,2.20
2022-08-23T06:31:47.207Z,2.20
2022-08-23T06:34:18.386Z,2.00
2022-08-23T06:36:47.655Z,2.03
2022-08-23T06:39:16.851Z,2.17
2022-08-23T06:41:45.599Z,2.37
2022-08-23T06:44:14.328Z,2.13
2022-08-23T06:46:44.367Z,2.00
2022-08-23T06:49:13.748Z,1.67
2022-08-23T06:51:43.579Z,2.23
2022-08-23T06:54:13.992Z,1.87
2022-08-23T06:56:43.449Z,2.10
2022-08-23T06:59:12.132Z,2.10
2022-08-23T07:01:47.141Z,2.13
2022-08-23T07:04:18.620Z,2.10
2022-08-23T07:06:47.363Z,1.80
2022-08-23T07:09:16.016Z,2.00
2022-08-23T07:11:44.597Z,2.17
2022-08-23T07:14:14.171Z,2.40
2022-08-23T07:16:44.491Z,2.27
2022-08-23T07:19:13.521Z,2.17
2022-08-23T07:21:43.913Z,1.80
2022-08-23T07:24:15.548Z,2.20
2022-08-23T07:26:45.276Z,2.30
2022-08-23T07:29:14.880Z,2.00
2022-08-23T07:31:45.355Z,2.20
2022-08-23T07:34:15.530Z,2.20
2022-08-23T07:36:46.590Z,1.90
2022-08-23T07:39:15.502Z,2.00
2022-08-23T07:41:44.976Z,1.83
2022-08-23T07:44:16.799Z,2.27
2022-08-23T07:46:48.974Z,2.00
2022-08-23T07:49:17.905Z,2.17
2022-08-23T07:51:49.464Z,2.33
2022-08-23T07:54:19.477Z,2.43
2022-08-23T07:56:48.245Z,2.20
2022-08-23T07:59:16.846Z,2.33
2022-08-23T08:01:46.392Z,2.60
2022-08-23T08:04:15.846Z,2.33
2022-08-23T08:06:59.809Z,2.60
2022-08-23T08:09:37.706Z,2.40
2022-08-23T08:12:06.579Z,2.27
2022-08-23T08:14:36.227Z,2.00
2022-08-23T08:17:06.838Z,1.90
2022-08-23T08:19:35.576Z,2.00
2022-08-23T08:22:04.205Z,2.20
2022-08-23T08:24:32.864Z,2.00
2022-08-23T08:27:02.814Z,2.00
2022-08-23T08:29:31.894Z,2.37
2022-08-23T08:32:00.517Z,2.10
2022-08-23T08:34:29.157Z,2.03
2022-08-23T08:36:59.812Z,2.10
2022-08-23T08:39:30.073Z,2.17
2022-08-23T08:42:07.912Z,2.07
2022-08-23T08:44:39.357Z,1.90
2022-08-23T08:47:09.976Z,2.37
2022-08-23T08:49:40.489Z,2.07
2022-08-23T08:52:14.896Z,1.73
2022-08-23T08:54:47.947Z,2.20
2022-08-23T08:57:22.629Z,2.00
2022-08-23T08:59:58.072Z,1.70
2022-08-23T09:02:32.781Z,2.13
2022-08-23T09:05:03.164Z,1.87
2022-08-23T09:07:38.197Z,1.77
2022-08-23T09:10:27.105Z,1.90
2022-08-23T09:13:03.517Z,2.10
2022-08-23T09:15:38.469Z,2.10
2022-08-23T09:18:10.284Z,1.70
2022-08-23T09:20:39.452Z,2.00
2022-08-23T09:23:09.607Z,2.13
2022-08-23T09:25:38.233Z,2.13
2022-08-23T09:28:08.506Z,2.10
2022-08-23T09:30:48.056Z,2.00
2022-08-23T09:33:17.557Z,1.70
2022-08-23T09:35:46.361Z,2.03
2022-08-23T09:38:20.158Z,1.77
2022-08-23T09:40:49.709Z,2.05
2022-08-23T09:43:22.005Z,1.83
2022-08-23T09:45:58.762Z,1.70
2022-08-23T09:48:39.856Z,1.90
2022-08-23T09:51:11.241Z,1.92
2022-08-23T09:53:45.570Z,1.60
2022-08-23T09:56:16.417Z,2.10
2022-08-23T09:58:50.501Z,2.35
2022-08-23T10:01:21.012Z,1.90
2022-08-23T10:04:08.340Z,1.75
2022-08-23T10:06:37.311Z,1.63
2022-08-23T10:09:06.784Z,2.00
2022-08-23T10:11:37.945Z,1.83
2022-08-23T10:14:08.313Z,1.70
2022-08-23T10:16:41.901Z,2.20
2022-08-23T10:19:14.409Z,1.90
2022-08-23T10:21:47.071Z,1.70
2022-08-23T10:24:22.589Z,1.80
2022-08-23T10:27:01.638Z,1.48
2022-08-23T10:29:37.514Z,1.80
2022-08-23T10:32:12.524Z,1.77
2022-08-23T10:34:48.372Z,1.80
2022-08-23T10:37:28.183Z,1.58
2022-08-23T10:40:03.907Z,1.60
2022-08-23T10:42:37.962Z,1.83
2022-08-23T10:45:12.297Z,1.50
2022-08-23T10:47:46.229Z,1.85
2022-08-23T10:50:19.929Z,1.58
2022-08-23T10:52:52.765Z,1.85
2022-08-23T10:55:35.658Z,1.70
2022-08-23T10:58:07.304Z,1.67
2022-08-23T11:00:38.228Z,1.60
2022-08-23T11:03:13.209Z,1.70
2022-08-23T11:05:43.187Z,1.60
2022-08-23T11:08:12.927Z,1.30
2022-08-23T11:10:53.806Z,1.60
2022-08-23T11:13:26.413Z,1.33
2022-08-23T11:16:00.695Z,1.88
2022-08-23T11:18:40.831Z,1.73
2022-08-23T11:21:33.588Z,1.77
2022-08-23T11:24:22.350Z,1.50
2022-08-23T11:27:06.892Z,1.50
2022-08-23T11:29:36.820Z,1.73
2022-08-23T11:32:26.962Z,1.17
2022-08-23T11:35:04.156Z,1.55
2022-08-23T11:37:49.742Z,1.30
2022-08-23T11:40:38.657Z,1.50
2022-08-23T11:43:09.403Z,1.73
2022-08-23T11:45:42.453Z,1.67
2022-08-23T11:48:20.525Z,1.60
2022-08-23T11:51:03.333Z,1.33
2022-08-23T11:53:43.290Z,1.35
2022-08-23T11:56:16.439Z,1.65
2022-08-23T11:58:57.553Z,1.60
2022-08-23T12:01:32.389Z,1.30
2022-08-23T12:04:08.664Z,1.20
2022-08-23T12:06:40.416Z,1.23
2022-08-23T12:09:13.228Z,1.40
2022-08-23T12:12:08.850Z,1.20
2022-08-23T12:14:38.688Z,1.45
2022-08-23T12:17:28.714Z,1.25
2022-08-23T12:20:00.649Z,1.40
2022-08-23T12:22:31.116Z,1.10
2022-08-23T12:25:00.925Z,1.33
2022-08-23T12:27:32.659Z,1.20
2022-08-23T12:30:03.384Z,1.33
2022-08-23T12:32:35.787Z,1.48
2022-08-23T12:35:25.154Z,1.45
2022-08-23T12:37:58.160Z,1.20
2022-08-23T12:40:29.754Z,1.40
2022-08-23T12:43:04.620Z,1.10
2022-08-23T12:45:38.540Z,1.38
2022-08-23T12:48:10.421Z,1.83
2022-08-23T12:50:42.398Z,1.55
2022-08-23T12:53:12.249Z,1.33
2022-08-23T12:55:42.555Z,1.70
2022-08-23T12:58:12.220Z,1.10
2022-08-23T13:00:43.305Z,1.20
2022-08-23T13:03:15.793Z,1.42
2022-08-23T13:05:47.547Z,1.40
2022-08-23T13:08:19.328Z,1.55
2022-08-23T13:10:56.818Z,1.27
2022-08-23T13:13:27.088Z,1.55
2022-08-23T13:15:56.728Z,1.15
2022-08-23T13:18:26.569Z,1.40
2022-08-23T13:21:13.680Z,1.35
2022-08-23T13:23:43.669Z,1.10
2022-08-23T13:26:36.729Z,1.25
2022-08-23T13:29:13.173Z,1.00
2022-08-23T13:32:03.423Z,1.10
2022-08-23T13:34:38.958Z,1.20
2022-08-23T13:37:16.770Z,1.10
2022-08-23T13:39:48.608Z,1.23
2022-08-23T13:42:26.257Z,1.30
2022-08-23T13:44:55.374Z,1.40
2022-08-23T13:47:25.708Z,1.38
2022-08-23T13:49:55.013Z,1.02
2022-08-23T13:52:56.659Z,1.48
2022-08-23T13:55:13.724Z,1.20
2022-08-23T13:57:42.574Z,1.10
2022-08-23T14:00:15.352Z,1.10
2022-08-23T14:02:48.885Z,1.00
2022-08-23T14:05:18.266Z,1.25
2022-08-23T14:07:47.664Z,1.17
2022-08-23T14:10:18.296Z,1.20
2022-08-23T14:12:48.441Z,0.90
2022-08-23T14:15:17.165Z,1.00
2022-08-23T14:17:47.341Z,1.20
2022-08-23T14:20:34.026Z,1.48
2022-08-23T14:23:11.509Z,1.05
2022-08-23T14:25:42.529Z,1.25
2022-08-23T14:28:11.255Z,1.08
2022-08-23T14:30:40.022Z,1.10
2022-08-23T14:33:08.708Z,1.05
2022-08-23T14:35:37.527Z,1.30
2022-08-23T14:38:06.171Z,1.20
2022-08-23T14:40:36.647Z,1.20
2022-08-23T14:43:07.234Z,1.10
2022-08-23T14:45:35.882Z,1.08
2022-08-23T14:48:04.659Z,1.38
2022-08-23T14:50:33.813Z,1.08
2022-08-23T14:53:04.150Z,1.13
2022-08-23T14:55:32.810Z,1.08
2022-08-23T14:58:01.395Z,1.75
2022-08-23T15:00:31.531Z,1.02
2022-08-23T15:03:00.294Z,1.30
2022-08-23T15:05:29.041Z,1.25
2022-08-23T15:07:58.000Z,1.15
2022-08-23T15:13:27.170Z,0.93
2022-08-23T15:16:01.329Z,1.20
2022-08-23T15:18:31.724Z,1.45
2022-08-23T15:21:00.606Z,1.10
2022-08-23T15:23:29.431Z,1.05
2022-08-23T15:25:58.694Z,1.30
2022-08-23T15:28:27.638Z,1.00
2022-08-23T15:30:56.488Z,1.50
2022-08-23T15:33:27.036Z,1.20
2022-08-23T15:36:01.941Z,1.00
2022-08-23T15:38:32.730Z,1.13
2022-08-23T15:41:01.652Z,1.35
2022-08-23T15:43:34.390Z,1.30
2022-08-23T15:46:05.796Z,1.10
2022-08-23T15:48:37.373Z,1.00
2022-08-23T15:51:06.768Z,1.20
2022-08-23T15:53:35.690Z,1.10
2022-08-23T15:56:05.895Z,1.10
2022-08-23T15:58:34.892Z,1.27
2022-08-23T16:01:03.763Z,0.90
2022-08-23T16:03:33.019Z,1.27
2022-08-23T16:06:03.724Z,1.20
2022-08-23T16:08:34.238Z,1.08
2022-08-23T16:11:05.158Z,1.02
2022-08-23T16:13:33.873Z,0.93
2022-08-23T16:16:03.081Z,1.20
2022-08-23T16:18:31.669Z,0.93
2022-08-23T16:21:00.254Z,1.10
2022-08-23T16:23:30.301Z,1.23
2022-08-23T16:26:01.229Z,1.13
2022-08-23T16:28:30.244Z,1.05
2022-08-23T16:30:58.948Z,1.10
2022-08-23T16:33:27.632Z,1.20
2022-08-23T16:35:56.225Z,1.10
2022-08-23T16:38:25.198Z,1.00
2022-08-23T16:40:55.159Z,1.10
2022-08-23T16:43:23.812Z,1.10
2022-08-23T16:45:52.443Z,0.93
2022-08-23T16:48:21.076Z,0.90
2022-08-23T16:50:49.885Z,0.93
2022-08-23T16:53:18.901Z,1.00
2022-08-23T16:55:47.506Z,1.00
2022-08-23T16:58:17.524Z,1.05
2022-08-23T17:00:46.385Z,1.02
2022-08-23T17:03:15.399Z,1.10
2022-08-23T17:05:44.066Z,1.02
2022-08-23T17:08:12.781Z,1.33
2022-08-23T17:10:41.697Z,0.93
2022-08-23T17:13:10.932Z,1.30
2022-08-23T17:15:40.875Z,1.00
2022-08-23T17:18:09.562Z,0.73
2022-08-23T17:20:39.224Z,0.98
2022-08-23T17:23:08.241Z,1.52
2022-08-23T17:25:37.701Z,1.05
2022-08-23T17:28:06.981Z,1.27
2022-08-23T17:30:35.877Z,1.10
2022-08-23T17:33:05.982Z,1.20
2022-08-23T17:35:34.737Z,1.20
2022-08-23T17:38:03.544Z,1.00
2022-08-23T17:40:33.490Z,0.90
2022-08-23T17:43:03.103Z,1.00
2022-08-23T17:45:34.093Z,1.02
2022-08-23T17:48:02.750Z,0.82
2022-08-23T17:50:32.793Z,0.90
2022-08-23T17:53:02.852Z,1.00
2022-08-23T17:55:34.186Z,1.00
2022-08-23T17:58:04.203Z,1.17
2022-08-23T18:00:33.700Z,1.00
2022-08-23T18:03:02.771Z,1.00
2022-08-23T18:05:34.023Z,1.13
2022-08-23T18:08:03.157Z,1.00
2022-08-23T18:10:31.883Z,1.10
2022-08-23T18:13:01.851Z,0.70
2022-08-23T18:15:31.397Z,0.97
2022-08-23T18:18:00.606Z,0.90
2022-08-23T18:20:29.969Z,0.90
2022-08-23T18:23:01.086Z,0.97
2022-08-23T18:25:30.109Z,1.00
2022-08-23T18:28:07.010Z,0.90
2022-08-23T18:30:36.308Z,0.90
2022-08-23T18:33:06.309Z,0.90
2022-08-23T18:35:36.240Z,1.00
2022-08-23T18:38:07.525Z,1.00
2022-08-23T18:40:45.125Z,0.80
2022-08-23T18:43:14.460Z,0.70
2022-08-23T18:45:43.312Z,0.90
2022-08-23T18:48:12.202Z,0.90
2022-08-23T18:50:41.056Z,0.70
2022-08-23T18:53:12.434Z,1.00
2022-08-23T18:55:41.264Z,1.17
2022-08-23T18:58:10.260Z,0.97
2022-08-23T19:00:39.466Z,1.10
2022-08-23T19:03:08.421Z,1.00
2022-08-23T19:05:41.812Z,1.10
2022-08-23T19:08:12.592Z,1.00
2022-08-23T19:10:41.546Z,0.93
2022-08-23T19:13:10.280Z,0.90
2022-08-23T19:15:40.201Z,0.93
2022-08-23T19:18:08.984Z,1.20
2022-08-23T19:20:38.211Z,1.10
2022-08-23T19:23:07.462Z,1.10
2022-08-23T19:25:38.447Z,1.10
2022-08-23T19:28:07.811Z,1.60
2022-08-23T19:30:36.482Z,1.80
2022-08-23T19:33:05.413Z,1.57
2022-08-23T19:35:34.771Z,1.60
2022-08-23T19:38:03.670Z,1.50
2022-08-23T19:40:32.558Z,1.40
2022-08-23T19:43:02.662Z,1.67
2022-08-23T19:45:32.184Z,1.50
2022-08-23T19:48:02.713Z,1.57
2022-08-23T19:50:31.377Z,1.50
2022-08-23T19:53:00.266Z,1.30
2022-08-23T19:55:29.351Z,1.50
2022-08-23T19:57:58.158Z,1.53
2022-08-23T20:00:30.282Z,1.53
2022-08-23T20:02:59.047Z,1.70
2022-08-23T20:05:27.802Z,1.50
2022-08-23T20:07:56.473Z,1.50
2022-08-23T20:10:25.181Z,1.20
2022-08-23T20:12:53.825Z,1.50
2022-08-23T20:15:22.488Z,1.47
2022-08-23T20:17:52.516Z,1.30
2022-08-23T20:20:21.188Z,1.30
2022-08-23T20:23:07.617Z,1.50
2022-08-23T20:25:36.521Z,1.50
2022-08-23T20:28:08.214Z,1.37
2022-08-23T20:30:37.431Z,1.70
2022-08-23T20:33:07.476Z,1.53
2022-08-23T20:35:36.222Z,1.40
2022-08-23T20:38:05.183Z,1.30
2022-08-23T20:40:34.121Z,1.60
2022-08-23T20:43:03.007Z,1.27
2022-08-23T20:45:32.703Z,1.47
2022-08-23T20:48:01.368Z,1.07
2022-08-23T20:50:31.446Z,1.27
2022-08-23T20:53:00.166Z,1.27
2022-08-23T20:55:28.909Z,1.50
2022-08-23T20:57:57.533Z,1.23
2022-08-23T21:00:26.232Z,1.30
2022-08-23T21:02:54.887Z,1.40
2022-08-23T21:05:23.543Z,1.27
2022-08-23T21:07:54.105Z,1.27
2022-08-23T21:10:22.795Z,1.20
2022-08-23T21:12:51.400Z,1.27
2022-08-23T21:15:20.053Z,1.33
2022-08-23T21:17:48.695Z,1.40
2022-08-23T21:20:17.439Z,1.37
2022-08-23T21:22:46.140Z,1.50
2022-08-23T21:25:16.578Z,1.20
2022-08-23T21:27:45.265Z,1.33
2022-08-23T21:30:14.447Z,1.47
2022-08-23T21:32:43.017Z,1.20
2022-08-23T21:35:13.756Z,1.27
2022-08-23T21:37:42.538Z,1.30
2022-08-23T21:40:12.063Z,1.30
2022-08-23T21:42:42.477Z,1.30
2022-08-23T21:45:11.399Z,1.30
2022-08-23T21:47:40.177Z,1.30
2022-08-23T21:50:09.232Z,1.20
2022-08-23T21:52:38.128Z,1.20
2022-08-23T21:55:07.449Z,1.37
2022-08-23T21:57:36.199Z,1.20
2022-08-23T22:00:08.972Z,1.20
2022-08-23T22:02:37.597Z,1.40
2022-08-23T22:05:06.567Z,1.30
2022-08-23T22:07:35.707Z,1.70
2022-08-23T22:10:04.353Z,1.53
2022-08-23T22:12:33.485Z,1.70
2022-08-23T22:15:02.241Z,1.40
2022-08-23T22:17:32.232Z,1.40
2022-08-23T22:20:01.016Z,1.47
2022-08-23T22:22:29.733Z,1.57
2022-08-23T22:24:58.309Z,1.60
2022-08-23T22:27:26.987Z,1.43
2022-08-23T22:29:55.672Z,1.70
2022-08-23T22:32:24.597Z,1.30
2022-08-23T22:34:54.605Z,1.37
2022-08-23T22:37:23.614Z,1.17
2022-08-23T22:39:52.489Z,1.40
2022-08-23T22:42:21.248Z,1.40
2022-08-23T22:44:49.846Z,1.70
2022-08-23T22:47:18.478Z,1.53
2022-08-23T22:49:47.082Z,1.60
2022-08-23T22:52:17.568Z,1.63
2022-08-23T22:54:46.232Z,1.60
2022-08-23T22:57:14.865Z,1.53
2022-08-23T22:59:43.844Z,1.23
2022-08-23T23:02:12.892Z,1.63
2022-08-23T23:04:44.156Z,1.47
2022-08-23T23:07:34.766Z,1.47
2022-08-23T23:10:05.501Z,1.40
2022-08-23T23:12:34.066Z,1.50
2022-08-23T23:15:02.657Z,1.40
2022-08-23T23:17:31.284Z,1.40
2022-08-23T23:20:17.857Z,1.30
2022-08-23T23:22:46.465Z,1.30
2022-08-23T23:25:16.444Z,1.30
2022-08-23T23:27:45.086Z,1.50
2022-08-23T23:30:14.232Z,1.20
2022-08-23T23:32:43.263Z,1.30
2022-08-23T23:35:12.259Z,1.33
2022-08-23T23:37:40.911Z,1.30
2022-08-23T23:40:10.272Z,1.20
2022-08-23T23:42:40.261Z,1.30
2022-08-23T23:45:09.622Z,1.20
2022-08-23T23:47:38.278Z,1.30
2022-08-23T23:50:07.604Z,1.33
2022-08-23T23:52:36.283Z,1.20
2022-08-23T23:55:05.155Z,1.40
2022-08-23T23:57:34.099Z,1.30
